Time;durP1;ratioP1;P1;durP2;ratioP2;P2;SDS_P1;SDS_P2;PMS_P1;PMS_P2;Temp;Humidity;BMP_temperature;BMP_pressure;BME280_temperature;BME280_humidity;BME280_pressure;Samples;Min_cycle;Max_cycle;Signal;HPM_P1;HPM_P2
2020/12/06 00:01:30;;;;;;;61.92;28.08;;;2.80;99.90;;;;;;5034830;28;20045;-78
2020/12/06 00:03:56;;;;;;;48.22;25.13;;;2.80;99.90;;;;;;5050065;28;20033;-77
2020/12/06 00:06:24;;;;;;;50.45;26.58;;;2.80;99.90;;;;;;5038821;28;20029;-78
2020/12/06 00:08:53;;;;;;;55.40;26.77;;;2.80;99.90;;;;;;5035299;28;20033;-78
2020/12/06 00:11:19;;;;;;;58.35;26.83;;;2.80;99.90;;;;;;5035379;28;20034;-77
2020/12/06 00:13:46;;;;;;;57.40;27.10;;;2.80;99.90;;;;;;5034481;28;20490;-78
2020/12/06 00:16:16;;;;;;;55.95;26.92;;;2.80;99.90;;;;;;5035630;28;20123;-77
2020/12/06 00:18:44;;;;;;;61.20;29.52;;;2.80;99.90;;;;;;5035067;28;20030;-77
2020/12/06 00:21:12;;;;;;;57.95;27.40;;;2.80;99.90;;;;;;5035326;28;20466;-77
2020/12/06 00:23:38;;;;;;;63.08;29.73;;;2.80;99.90;;;;;;5034903;28;20033;-78
2020/12/06 00:26:04;;;;;;;60.45;28.88;;;2.80;99.90;;;;;;5035261;28;20037;-77
2020/12/06 00:28:31;;;;;;;66.22;27.75;;;2.90;99.90;;;;;;5034809;28;20033;-77
2020/12/06 00:30:57;;;;;;;63.90;29.95;;;2.80;99.90;;;;;;5034968;28;20030;-77
2020/12/06 00:33:23;;;;;;;69.00;30.33;;;2.80;99.90;;;;;;5034531;28;20058;-77
2020/12/06 00:35:50;;;;;;;66.47;29.33;;;2.90;99.90;;;;;;5034238;28;20033;-77
2020/12/06 00:38:16;;;;;;;69.88;31.63;;;2.90;99.90;;;;;;5034506;28;20397;-77
2020/12/06 00:40:42;;;;;;;74.75;31.42;;;3.00;99.90;;;;;;5034984;28;20029;-78
2020/12/06 00:43:08;;;;;;;66.50;30.77;;;3.10;99.90;;;;;;5043330;28;20029;-78
2020/12/06 00:45:35;;;;;;;62.42;28.33;;;3.00;99.90;;;;;;5034696;28;20044;-78
2020/12/06 00:48:02;;;;;;;64.45;29.00;;;2.90;99.90;;;;;;5033469;28;20045;-77
2020/12/06 00:50:30;;;;;;;69.18;28.33;;;2.90;99.90;;;;;;5066196;28;20049;-77
2020/12/06 00:52:57;;;;;;;66.35;29.63;;;2.90;99.90;;;;;;5049901;28;20044;-77
2020/12/06 00:55:24;;;;;;;71.75;30.45;;;2.90;99.90;;;;;;5038461;28;20053;-78
2020/12/06 00:57:50;;;;;;;72.88;30.25;;;2.90;99.90;;;;;;5049190;28;20045;-78
2020/12/06 01:00:17;;;;;;;72.38;30.50;;;2.90;99.90;;;;;;5034447;28;20030;-79
2020/12/06 01:02:43;;;;;;;64.95;28.65;;;2.90;99.90;;;;;;5045616;28;20031;-81
2020/12/06 01:05:10;;;;;;;70.85;29.60;;;2.90;99.90;;;;;;5034331;28;20033;-78
2020/12/06 01:07:40;;;;;;;68.45;28.90;;;2.90;99.90;;;;;;5033615;28;20033;-78
2020/12/06 01:10:09;;;;;;;69.53;30.17;;;2.90;99.90;;;;;;5034371;28;20046;-78
2020/12/06 01:12:36;;;;;;;69.55;29.20;;;2.90;99.90;;;;;;5034363;28;20514;-78
2020/12/06 01:15:07;;;;;;;62.95;28.35;;;2.90;99.90;;;;;;5033813;28;20053;-78
2020/12/06 01:17:33;;;;;;;73.30;30.40;;;2.90;99.90;;;;;;5038875;28;20044;-78
2020/12/06 01:19:59;;;;;;;69.60;31.27;;;2.90;99.90;;;;;;5047001;28;20032;-77
2020/12/06 01:22:26;;;;;;;69.70;28.85;;;2.80;99.90;;;;;;5034144;28;20041;-78
2020/12/06 01:24:52;;;;;;;79.80;30.50;;;2.80;99.90;;;;;;5048023;28;20037;-78
2020/12/06 01:27:18;;;;;;;73.53;31.05;;;2.80;99.90;;;;;;5041239;28;20481;-78
2020/12/06 01:29:44;;;;;;;73.22;32.10;;;2.80;99.90;;;;;;5034211;28;20378;-79
2020/12/06 01:32:10;;;;;;;78.43;30.75;;;2.80;99.90;;;;;;5051172;28;20040;-78
2020/12/06 01:34:37;;;;;;;73.40;30.85;;;2.80;99.90;;;;;;5040525;28;20056;-78
2020/12/06 01:37:03;;;;;;;79.57;31.38;;;2.80;99.90;;;;;;5036579;28;20033;-78
2020/12/06 01:39:29;;;;;;;72.97;32.50;;;2.80;99.90;;;;;;5032669;28;20025;-78
2020/12/06 01:41:57;;;;;;;80.15;32.33;;;2.80;99.90;;;;;;5033846;28;20386;-78
2020/12/06 01:44:26;;;;;;;76.13;31.92;;;2.80;99.90;;;;;;5033914;28;20040;-78
2020/12/06 01:46:56;;;;;;;74.22;31.65;;;2.80;99.90;;;;;;5047441;28;20036;-78
2020/12/06 01:49:25;;;;;;;75.55;31.17;;;2.80;99.90;;;;;;5048791;28;20047;-78
2020/12/06 01:51:55;;;;;;;80.82;32.17;;;2.90;99.90;;;;;;5040362;28;20033;-78
2020/12/06 01:54:22;;;;;;;83.28;33.03;;;3.00;99.90;;;;;;5053371;28;20049;-77
2020/12/06 01:56:49;;;;;;;80.20;32.15;;;3.00;99.90;;;;;;5034888;28;20041;-79
2020/12/06 01:59:16;;;;;;;73.60;31.73;;;2.90;99.90;;;;;;5048479;28;20029;-81
2020/12/06 02:02:02;;;;;;;78.13;31.38;;;3.00;99.90;;;;;;5045028;28;20117;-78
2020/12/06 02:04:30;;;;;;;74.53;31.35;;;2.90;99.90;;;;;;5032806;28;20037;-77
2020/12/06 02:06:57;;;;;;;65.60;30.98;;;2.90;99.90;;;;;;5048945;28;20033;-78
2020/12/06 02:09:28;;;;;;;74.78;29.85;;;2.90;99.90;;;;;;5039780;28;20037;-83
2020/12/06 02:11:55;;;;;;;67.30;29.83;;;2.90;99.90;;;;;;5033406;28;20052;-77
2020/12/06 02:14:21;;;;;;;71.47;29.85;;;2.90;99.90;;;;;;5032818;28;20037;-78
2020/12/06 02:16:47;;;;;;;68.90;30.17;;;2.90;99.90;;;;;;5033163;28;20029;-78
2020/12/06 02:19:14;;;;;;;69.78;30.45;;;2.90;99.90;;;;;;5033114;28;20025;-77
2020/12/06 02:21:41;;;;;;;66.53;29.20;;;2.80;99.90;;;;;;5034692;28;20033;-78
2020/12/06 02:24:09;;;;;;;63.55;30.00;;;2.90;99.90;;;;;;5049831;28;20474;-78
2020/12/06 02:26:45;;;;;;;71.00;30.50;;;2.80;99.90;;;;;;5032663;28;20025;-78
2020/12/06 02:29:13;;;;;;;75.93;30.80;;;2.80;99.90;;;;;;5033029;28;20021;-77
2020/12/06 02:31:40;;;;;;;72.75;32.28;;;2.90;99.90;;;;;;5032890;28;20033;-78
2020/12/06 02:34:07;;;;;;;74.65;31.00;;;2.90;99.90;;;;;;5033168;28;20045;-77
2020/12/06 02:36:34;;;;;;;66.07;31.33;;;2.90;99.90;;;;;;5032503;28;20057;-78
2020/12/06 02:39:03;;;;;;;73.22;32.10;;;2.90;99.90;;;;;;5032574;28;20459;-78
2020/12/06 02:41:39;;;;;;;69.75;32.35;;;2.90;99.90;;;;;;5032350;28;20030;-79
2020/12/06 02:44:07;;;;;;;76.18;31.55;;;2.90;99.90;;;;;;5046355;28;20041;-79
2020/12/06 02:46:34;;;;;;;75.78;30.23;;;2.80;99.90;;;;;;5047907;28;20033;-79
2020/12/06 02:49:00;;;;;;;64.00;29.10;;;2.90;99.90;;;;;;5032556;28;20040;-79
2020/12/06 02:51:27;;;;;;;69.07;29.75;;;2.90;99.90;;;;;;5031525;28;20046;-79
2020/12/06 02:53:53;;;;;;;65.47;28.95;;;2.90;99.90;;;;;;5032183;28;20037;-79
2020/12/06 02:56:19;;;;;;;69.30;29.75;;;2.90;99.90;;;;;;5038500;28;20029;-78
2020/12/06 02:58:46;;;;;;;67.10;29.23;;;2.90;99.90;;;;;;5034193;28;20072;-78
2020/12/06 03:01:12;;;;;;;66.95;28.67;;;2.90;99.90;;;;;;5032830;28;20037;-77
2020/12/06 03:03:39;;;;;;;71.63;29.92;;;2.90;99.90;;;;;;5031981;28;20033;-78
2020/12/06 03:06:07;;;;;;;67.25;29.70;;;2.80;99.90;;;;;;5031710;28;20045;-78
2020/12/06 03:08:33;;;;;;;69.80;28.20;;;2.80;99.90;;;;;;5031378;28;20410;-78
2020/12/06 03:11:00;;;;;;;68.95;30.08;;;2.80;99.90;;;;;;5032448;28;20033;-81
2020/12/06 03:13:26;;;;;;;68.20;29.88;;;2.80;99.90;;;;;;5045052;28;20033;-78
2020/12/06 03:15:52;;;;;;;67.88;28.65;;;2.80;99.90;;;;;;5036934;28;20029;-78
2020/12/06 03:18:18;;;;;;;70.32;31.65;;;2.80;99.90;;;;;;5050582;28;20048;-80
2020/12/06 03:20:44;;;;;;;67.68;29.88;;;2.80;99.90;;;;;;5045855;28;20029;-79
2020/12/06 03:23:11;;;;;;;71.40;30.25;;;2.80;99.90;;;;;;5031890;28;20039;-79
2020/12/06 03:25:37;;;;;;;64.82;26.02;;;2.90;99.90;;;;;;5031059;28;20731;-78
2020/12/06 03:28:03;;;;;;;65.15;28.58;;;2.80;99.90;;;;;;5033297;28;20036;-79
2020/12/06 03:30:29;;;;;;;71.88;29.17;;;2.80;99.90;;;;;;5047955;28;20025;-78
2020/12/06 03:32:56;;;;;;;67.93;28.45;;;2.80;99.90;;;;;;5032269;28;20048;-78
2020/12/06 03:35:22;;;;;;;78.28;29.02;;;2.80;99.90;;;;;;5032426;28;20045;-77
2020/12/06 03:37:48;;;;;;;66.82;30.02;;;2.80;99.90;;;;;;5031956;28;20046;-78
2020/12/06 03:40:16;;;;;;;66.22;29.30;;;2.80;99.90;;;;;;5031890;28;20463;-78
2020/12/06 03:42:42;;;;;;;80.80;30.60;;;2.80;99.90;;;;;;5031713;28;20476;-78
2020/12/06 03:45:08;;;;;;;70.32;30.25;;;2.80;99.90;;;;;;5032077;28;20041;-78
2020/12/06 03:47:34;;;;;;;81.60;30.85;;;2.90;99.90;;;;;;5031657;28;20048;-78
2020/12/06 03:50:01;;;;;;;77.07;29.73;;;2.90;99.90;;;;;;5032297;28;20374;-78
2020/12/06 03:52:27;;;;;;;76.22;30.65;;;2.90;99.90;;;;;;5031338;28;20037;-78
2020/12/06 03:54:53;;;;;;;68.70;29.95;;;2.80;99.90;;;;;;5031882;28;20029;-82
2020/12/06 03:57:19;;;;;;;71.35;29.60;;;2.80;99.90;;;;;;5031712;28;20034;-78
2020/12/06 03:59:45;;;;;;;75.30;32.25;;;2.80;99.90;;;;;;5032295;28;20037;-77
2020/12/06 04:02:13;;;;;;;83.15;32.45;;;2.80;99.90;;;;;;5031499;28;20054;-77
2020/12/06 04:04:40;;;;;;;70.68;29.33;;;2.80;99.90;;;;;;5031831;28;20037;-78
2020/12/06 04:07:06;;;;;;;77.88;32.13;;;2.80;99.90;;;;;;5031391;28;20489;-78
2020/12/06 04:09:32;;;;;;;76.80;30.00;;;2.80;99.90;;;;;;5031311;28;20033;-78
2020/12/06 04:11:59;;;;;;;78.90;31.27;;;2.80;99.90;;;;;;5035327;28;20045;-78
2020/12/06 04:14:25;;;;;;;86.22;35.25;;;2.80;99.90;;;;;;5034825;28;20040;-78
2020/12/06 04:16:51;;;;;;;79.80;32.50;;;2.80;99.90;;;;;;5035080;28;20045;-79
2020/12/06 04:19:17;;;;;;;90.60;35.55;;;2.80;99.90;;;;;;5035677;28;20045;-78
2020/12/06 04:21:44;;;;;;;90.60;36.00;;;2.80;99.90;;;;;;5035296;28;20048;-77
2020/12/06 04:24:12;;;;;;;97.32;35.92;;;2.80;99.90;;;;;;5035321;28;20382;-78
2020/12/06 04:26:41;;;;;;;92.97;34.03;;;2.80;99.90;;;;;;5034439;28;20215;-78
2020/12/06 04:29:07;;;;;;;82.57;33.42;;;2.80;99.90;;;;;;5042937;28;20467;-78
2020/12/06 04:31:34;;;;;;;90.70;35.00;;;2.90;99.90;;;;;;5066769;28;20029;-77
2020/12/06 04:34:00;;;;;;;86.13;34.47;;;2.80;99.90;;;;;;5049195;28;20053;-78
2020/12/06 04:36:26;;;;;;;92.85;36.10;;;2.80;99.90;;;;;;5047673;28;20041;-78
2020/12/06 04:38:52;;;;;;;85.35;36.17;;;2.90;99.90;;;;;;5041779;28;20033;-78
2020/12/06 04:41:21;;;;;;;90.97;37.08;;;2.90;99.90;;;;;;5051068;28;20040;-86
2020/12/06 04:43:48;;;;;;;91.75;36.20;;;2.90;99.90;;;;;;5036400;28;20097;-78
2020/12/06 04:46:15;;;;;;;90.70;36.17;;;2.90;99.90;;;;;;5035115;28;20388;-78
2020/12/06 04:49:05;;;;;;;84.13;35.72;;;2.90;99.90;;;;;;5034741;28;20411;-77
2020/12/06 04:51:43;;;;;;;84.43;35.00;;;2.80;99.90;;;;;;5048798;28;20382;-78
2020/12/06 04:54:10;;;;;;;86.03;34.35;;;2.80;99.90;;;;;;5039847;28;20052;-78
2020/12/06 04:56:38;;;;;;;90.55;36.38;;;2.80;99.90;;;;;;5045350;28;20025;-78
2020/12/06 04:59:05;;;;;;;90.90;37.08;;;2.80;99.90;;;;;;5052721;28;20048;-77
2020/12/06 05:01:36;;;;;;;88.93;36.63;;;2.80;99.90;;;;;;5034737;28;20045;-77
2020/12/06 05:04:09;;;;;;;;;;;2.80;99.90;;;;;;5043589;28;20058;-77
2020/12/06 05:06:38;;;;;;;85.10;34.90;;;2.80;99.90;;;;;;5034289;28;19916;-78
2020/12/06 05:09:09;;;;;;;85.03;34.28;;;2.70;99.90;;;;;;5034915;28;20037;-77
2020/12/06 05:11:36;;;;;;;102.87;37.57;;;2.80;99.90;;;;;;5034576;28;20379;-78
2020/12/06 05:14:06;;;;;;;94.13;35.50;;;2.80;99.90;;;;;;5046870;28;20084;-78
2020/12/06 05:16:37;;;;;;;91.95;37.90;;;2.80;99.90;;;;;;5033918;28;20045;-78
2020/12/06 05:19:05;;;;;;;93.18;36.42;;;2.80;99.90;;;;;;5034319;28;20032;-78
2020/12/06 05:21:35;;;;;;;89.97;35.08;;;2.80;99.90;;;;;;5033800;28;20033;-77
2020/12/06 05:24:02;;;;;;;90.47;35.83;;;2.80;99.90;;;;;;5034268;28;20033;-79
2020/12/06 05:26:29;;;;;;;80.72;35.45;;;2.80;99.90;;;;;;5033605;28;20029;-77
2020/12/06 05:28:56;;;;;;;90.50;37.13;;;2.80;99.90;;;;;;5034429;28;20475;-77
2020/12/06 05:31:23;;;;;;;86.57;35.33;;;2.80;99.90;;;;;;5051929;28;20500;-78
2020/12/06 05:33:50;;;;;;;85.38;36.55;;;2.80;99.90;;;;;;5043932;28;20056;-77
2020/12/06 05:36:17;;;;;;;86.80;35.20;;;2.80;99.90;;;;;;5038623;28;20037;-77
2020/12/06 05:38:44;;;;;;;98.93;44.60;;;2.80;99.90;;;;;;5047965;28;20463;-77
2020/12/06 05:41:11;;;;;;;92.55;36.63;;;2.80;99.90;;;;;;5047568;28;20381;-77
2020/12/06 05:43:38;;;;;;;90.80;36.38;;;2.80;99.90;;;;;;5042604;28;20374;-77
2020/12/06 05:46:15;;;;;;;84.22;36.22;;;2.80;99.90;;;;;;5045387;28;20383;-77
2020/12/06 05:48:42;;;;;;;87.60;36.22;;;2.80;99.90;;;;;;5040440;28;20382;-77
2020/12/06 05:51:09;;;;;;;89.00;36.08;;;2.80;99.90;;;;;;5040116;28;20032;-77
2020/12/06 05:53:36;;;;;;;82.53;35.03;;;2.80;99.90;;;;;;5033269;28;20034;-78
2020/12/06 05:56:13;;;;;;;84.47;35.08;;;2.80;99.90;;;;;;5033028;28;20041;-78
2020/12/06 05:58:41;;;;;;;82.22;34.72;;;2.80;99.90;;;;;;5033142;28;20037;-78
2020/12/06 06:01:11;;;;;;;81.97;34.53;;;2.80;99.90;;;;;;5047757;28;20397;-78
2020/12/06 06:03:40;;;;;;;81.90;33.28;;;2.80;99.90;;;;;;5037238;28;20036;-79
2020/12/06 06:06:08;;;;;;;87.32;36.05;;;2.80;99.90;;;;;;5042120;28;20063;-78
2020/12/06 06:08:36;;;;;;;85.90;36.25;;;2.80;99.90;;;;;;5046635;28;20052;-78
2020/12/06 06:11:29;;;;;;;85.85;34.97;;;2.80;99.90;;;;;;5041691;28;20037;-77
2020/12/06 06:14:11;;;;;;;87.47;34.40;;;2.80;99.90;;;;;;5041645;28;20467;-78
2020/12/06 06:16:37;;;;;;;92.95;35.20;;;2.80;99.90;;;;;;5032704;28;20048;-78
2020/12/06 06:19:05;;;;;;;79.40;36.28;;;2.80;99.90;;;;;;5032865;28;20025;-79
2020/12/06 06:21:38;;;;;;;90.50;33.88;;;2.80;99.90;;;;;;5031560;28;20037;-79
2020/12/06 06:24:18;;;;;;;83.07;31.58;;;2.80;99.90;;;;;;5033053;28;20040;-79
2020/12/06 06:26:48;;;;;;;91.65;35.80;;;2.80;99.90;;;;;;5032911;28;20033;-78
2020/12/06 06:29:16;;;;;;;87.75;36.75;;;2.90;99.90;;;;;;5033139;28;20463;-78
2020/12/06 06:31:44;;;;;;;89.88;35.13;;;2.90;99.90;;;;;;5042646;28;20052;-78
2020/12/06 06:34:11;;;;;;;89.63;35.33;;;2.90;99.90;;;;;;5032340;28;20045;-78
2020/12/06 06:36:37;;;;;;;87.00;35.38;;;2.90;99.90;;;;;;5032073;28;20041;-78
2020/12/06 06:39:05;;;;;;;96.95;36.70;;;2.90;99.90;;;;;;5032531;28;20045;-78
2020/12/06 06:41:35;;;;;;;101.47;36.63;;;3.00;99.90;;;;;;5037364;28;20485;-78
2020/12/06 06:44:05;;;;;;;91.85;34.75;;;3.00;99.90;;;;;;5042158;28;20048;-78
2020/12/06 06:46:35;;;;;;;89.28;34.10;;;2.90;99.90;;;;;;5032560;28;20471;-78
2020/12/06 06:49:11;;;;;;;82.15;34.63;;;2.90;99.90;;;;;;5032760;28;20037;-78
2020/12/06 06:51:37;;;;;;;83.40;32.15;;;3.00;99.90;;;;;;5032031;28;20037;-78
2020/12/06 06:54:06;;;;;;;89.05;34.65;;;3.00;99.90;;;;;;5032643;28;20056;-78
2020/12/06 06:56:49;;;;;;;85.63;34.20;;;3.00;99.90;;;;;;5033254;28;20045;-78
2020/12/06 06:59:15;;;;;;;88.93;33.92;;;3.00;99.90;;;;;;5042608;28;20024;-78
2020/12/06 07:01:48;;;;;;;95.78;36.17;;;3.00;99.90;;;;;;5045709;28;20037;-78
2020/12/06 07:04:21;;;;;;;94.18;35.30;;;3.00;99.90;;;;;;5032614;28;20025;-79
2020/12/06 07:06:49;;;;;;;78.90;33.22;;;3.00;99.90;;;;;;5032060;28;20033;-79
2020/12/06 07:09:25;;;;;;;86.53;35.05;;;3.00;99.90;;;;;;5041495;28;20038;-79
2020/12/06 07:11:54;;;;;;;99.50;35.17;;;3.00;99.90;;;;;;5041271;28;20038;-79
2020/12/06 07:14:25;;;;;;;85.53;34.08;;;3.00;99.90;;;;;;5031969;28;20459;-79
2020/12/06 07:16:52;;;;;;;92.90;33.97;;;3.00;99.90;;;;;;5032935;28;20038;-79
2020/12/06 07:19:20;;;;;;;96.65;35.65;;;3.00;99.90;;;;;;5031752;28;20029;-79
2020/12/06 07:21:47;;;;;;;91.03;32.88;;;3.00;99.90;;;;;;5032161;28;20040;-79
2020/12/06 07:24:15;;;;;;;84.25;34.20;;;3.00;99.90;;;;;;5030296;28;20049;-79
2020/12/06 07:26:43;;;;;;;81.00;34.53;;;3.00;99.90;;;;;;5031707;28;20036;-79
2020/12/06 07:29:09;;;;;;;96.93;36.83;;;3.00;99.90;;;;;;5033994;28;20040;-79
2020/12/06 07:31:36;;;;;;;87.57;34.25;;;3.00;99.90;;;;;;5050848;28;20033;-80
2020/12/06 07:34:03;;;;;;;93.90;34.15;;;3.00;99.90;;;;;;5031560;28;20483;-80
2020/12/06 07:36:36;;;;;;;85.10;31.35;;;3.10;99.90;;;;;;5031118;28;20053;-78
2020/12/06 07:39:16;;;;;;;89.00;35.53;;;3.00;99.90;;;;;;5041425;28;20044;-78
2020/12/06 07:41:49;;;;;;;79.32;32.47;;;3.10;99.90;;;;;;5038063;28;20135;-79
2020/12/06 07:44:17;;;;;;;82.22;33.08;;;3.10;99.90;;;;;;5031962;28;20028;-78
2020/12/06 07:46:43;;;;;;;96.55;36.30;;;3.10;99.90;;;;;;5033870;28;20053;-78
2020/12/06 07:49:10;;;;;;;84.75;33.88;;;3.00;99.90;;;;;;5035638;28;20482;-78
2020/12/06 07:51:36;;;;;;;84.78;34.95;;;3.10;99.90;;;;;;5035253;28;20057;-78
2020/12/06 07:54:03;;;;;;;82.38;34.95;;;3.10;99.90;;;;;;5048658;28;20052;-78
2020/12/06 07:56:30;;;;;;;86.45;34.03;;;3.00;99.90;;;;;;5035243;28;20044;-79
2020/12/06 07:59:21;;;;;;;96.00;34.25;;;3.10;99.90;;;;;;5035753;28;20061;-79
2020/12/06 08:01:49;;;;;;;;;;;3.10;99.90;;;;;;5035995;28;20041;-78
2020/12/06 08:04:27;;;;;;;83.63;33.72;;;3.10;99.90;;;;;;5035215;28;19916;-79
2020/12/06 08:07:08;;;;;;;83.25;33.20;;;3.10;99.90;;;;;;5035608;28;20420;-83
2020/12/06 08:09:38;;;;;;;86.10;34.33;;;3.10;99.90;;;;;;5035500;28;20033;-80
2020/12/06 08:12:06;;;;;;;86.07;35.15;;;3.10;99.90;;;;;;5046631;28;20025;-84
2020/12/06 08:14:33;;;;;;;86.43;34.53;;;3.10;99.90;;;;;;5055121;28;20025;-83
2020/12/06 08:17:06;;;;;;;91.07;34.58;;;3.20;99.90;;;;;;5051965;28;20033;-84
2020/12/06 08:19:44;;;;;;;86.35;33.75;;;3.20;99.90;;;;;;5051800;28;20025;-84
2020/12/06 08:22:19;;;;;;;84.55;35.45;;;3.20;99.90;;;;;;5050892;28;20037;-82
2020/12/06 08:25:09;;;;;;;87.40;32.88;;;3.10;99.90;;;;;;5051865;28;20025;-83
2020/12/06 08:27:49;;;;;;;86.30;33.67;;;3.20;99.90;;;;;;5045689;28;20045;-80
2020/12/06 08:30:29;;;;;;;84.80;34.88;;;3.20;99.90;;;;;;5041926;28;20044;-83
2020/12/06 08:33:04;;;;;;;87.57;34.63;;;3.30;99.90;;;;;;5043392;28;20049;-83
2020/12/06 08:35:38;;;;;;;93.82;40.65;;;3.30;99.90;;;;;;5034055;28;20049;-83
2020/12/06 08:38:22;;;;;;;108.65;42.53;;;3.30;99.90;;;;;;5038610;28;20033;-83
2020/12/06 08:41:09;;;;;;;95.28;39.22;;;3.30;99.90;;;;;;5044580;28;20025;-82
2020/12/06 08:43:51;;;;;;;85.32;36.00;;;3.30;99.90;;;;;;5041633;28;20033;-82
2020/12/06 08:46:23;;;;;;;86.80;37.05;;;3.40;99.90;;;;;;5049940;28;20041;-83
2020/12/06 08:48:54;;;;;;;82.18;37.03;;;3.40;99.90;;;;;;5038977;28;20034;-82
2020/12/06 08:51:27;;;;;;;87.75;36.13;;;3.50;99.90;;;;;;5049147;28;20025;-82
2020/12/06 08:53:54;;;;;;;83.22;35.08;;;3.50;99.90;;;;;;5038576;28;20036;-82
2020/12/06 08:56:33;;;;;;;77.72;31.90;;;3.50;99.90;;;;;;5034381;28;20033;-82
2020/12/06 08:59:12;;;;;;;83.90;33.75;;;3.50;99.90;;;;;;5034857;28;20465;-82
2020/12/06 09:01:49;;;;;;;82.03;33.08;;;3.50;99.90;;;;;;5034542;28;20060;-82
2020/12/06 09:04:16;;;;;;;80.53;32.33;;;3.60;99.90;;;;;;5048284;28;20032;-82
2020/12/06 09:06:44;;;;;;;85.65;35.08;;;3.60;99.90;;;;;;5037608;28;20271;-82
2020/12/06 09:09:10;;;;;;;73.18;32.05;;;3.60;99.90;;;;;;5043507;28;20032;-82
2020/12/06 09:11:37;;;;;;;74.25;32.80;;;3.60;99.90;;;;;;5045703;28;20033;-80
2020/12/06 09:14:03;;;;;;;77.47;32.60;;;3.60;99.90;;;;;;5044067;28;20025;-82
2020/12/06 09:16:30;;;;;;;70.80;32.35;;;3.60;99.90;;;;;;5040023;28;20037;-82
2020/12/06 09:18:56;;;;;;;73.45;30.05;;;3.50;99.90;;;;;;5040242;28;20061;-82
2020/12/06 09:21:23;;;;;;;74.18;33.15;;;3.60;99.90;;;;;;5034461;28;20088;-82
2020/12/06 09:23:49;;;;;;;69.43;32.95;;;3.60;99.90;;;;;;5033842;28;20384;-81
2020/12/06 09:26:16;;;;;;;59.85;28.92;;;3.70;99.90;;;;;;5032943;28;20045;-82
2020/12/06 09:28:42;;;;;;;67.70;31.90;;;3.70;99.90;;;;;;5033898;28;20052;-83
2020/12/06 09:31:09;;;;;;;67.20;31.02;;;3.70;99.90;;;;;;5034121;28;20040;-83
2020/12/06 09:33:36;;;;;;;63.78;29.45;;;3.70;99.90;;;;;;5050627;28;20047;-79
2020/12/06 09:36:03;;;;;;;64.50;30.48;;;3.70;99.90;;;;;;5051365;28;20037;-82
2020/12/06 09:38:30;;;;;;;63.35;29.08;;;3.70;99.90;;;;;;5052219;28;20040;-82
2020/12/06 09:40:56;;;;;;;61.00;28.83;;;3.70;99.90;;;;;;5059970;28;20024;-81
2020/12/06 09:43:23;;;;;;;61.90;30.30;;;3.80;99.90;;;;;;5055556;28;20033;-81
2020/12/06 09:45:49;;;;;;;67.43;31.20;;;3.80;99.90;;;;;;5038843;28;20037;-81
2020/12/06 09:48:15;;;;;;;61.72;28.95;;;3.90;99.90;;;;;;5049139;28;20025;-83
2020/12/06 09:50:42;;;;;;;61.65;29.45;;;3.90;99.90;;;;;;5049213;28;20033;-81
2020/12/06 09:53:08;;;;;;;64.18;27.27;;;4.00;99.90;;;;;;5049015;28;20052;-80
2020/12/06 09:55:35;;;;;;;55.75;27.60;;;3.90;99.90;;;;;;5048200;28;20496;-81
2020/12/06 09:58:02;;;;;;;55.45;26.70;;;3.90;99.90;;;;;;5042970;28;20039;-82
2020/12/06 10:00:28;;;;;;;56.78;28.38;;;3.90;99.90;;;;;;5054659;28;20505;-80
2020/12/06 10:02:54;;;;;;;70.13;33.78;;;3.90;99.90;;;;;;5057506;28;20028;-76
2020/12/06 10:05:20;;;;;;;81.00;40.80;;;4.00;99.90;;;;;;5042087;28;20402;-79
2020/12/06 10:07:47;;;;;;;60.88;31.17;;;3.90;99.90;;;;;;5051412;28;20035;-78
2020/12/06 10:10:13;;;;;;;65.72;34.90;;;4.00;99.90;;;;;;5039769;28;20025;-75
2020/12/06 10:12:39;;;;;;;55.65;29.48;;;4.00;99.90;;;;;;5060302;28;20036;-80
2020/12/06 10:15:06;;;;;;;61.65;30.77;;;4.00;99.90;;;;;;5059441;28;20457;-74
2020/12/06 10:17:32;;;;;;;63.92;30.05;;;4.00;99.90;;;;;;5057698;28;20064;-80
2020/12/06 10:19:59;;;;;;;63.55;32.88;;;4.00;99.90;;;;;;5054723;28;20358;-75
2020/12/06 10:22:26;;;;;;;58.75;29.20;;;4.00;99.90;;;;;;5054601;28;20024;-79
2020/12/06 10:24:52;;;;;;;53.45;25.33;;;4.00;99.90;;;;;;5058484;28;20032;-75
2020/12/06 10:27:18;;;;;;;58.58;30.65;;;4.00;99.90;;;;;;5051953;28;20036;-75
2020/12/06 10:29:44;;;;;;;59.67;27.85;;;4.00;99.90;;;;;;5040826;28;20368;-75
2020/12/06 10:32:10;;;;;;;52.42;26.85;;;4.00;99.90;;;;;;5047763;28;20060;-75
2020/12/06 10:34:37;;;;;;;52.85;26.65;;;4.10;99.90;;;;;;5044542;28;20045;-76
2020/12/06 10:37:03;;;;;;;51.78;26.83;;;4.00;99.90;;;;;;5034999;28;20410;-76
2020/12/06 10:39:29;;;;;;;53.88;25.42;;;4.10;99.90;;;;;;5036005;28;20049;-76
2020/12/06 10:41:56;;;;;;;51.40;26.75;;;4.00;99.90;;;;;;5044250;28;20030;-76
2020/12/06 10:44:25;;;;;;;54.50;26.08;;;4.10;99.90;;;;;;5039205;28;20040;-75
2020/12/06 10:46:53;;;;;;;52.90;25.83;;;4.10;99.90;;;;;;5058429;28;20040;-76
2020/12/06 10:49:20;;;;;;;51.53;24.90;;;4.10;99.90;;;;;;5052564;28;20029;-76
2020/12/06 10:51:48;;;;;;;53.38;25.95;;;4.10;99.90;;;;;;5055582;28;20021;-79
2020/12/06 10:54:15;;;;;;;48.47;24.38;;;4.10;99.90;;;;;;5067737;28;20036;-78
2020/12/06 10:56:42;;;;;;;47.50;23.52;;;4.00;99.90;;;;;;5055698;28;20032;-78
2020/12/06 10:59:09;;;;;;;54.03;27.65;;;4.10;99.90;;;;;;5057416;28;20033;-78
2020/12/06 11:01:35;;;;;;;54.38;26.77;;;4.10;99.90;;;;;;5056453;28;20040;-78
2020/12/06 11:04:03;;;;;;;47.60;25.25;;;4.10;99.90;;;;;;5059553;28;20021;-78
2020/12/06 11:06:30;;;;;;;53.78;27.52;;;4.10;99.90;;;;;;5059296;28;20032;-78
2020/12/06 11:08:56;;;;;;;64.53;33.65;;;4.20;99.90;;;;;;5054160;28;20021;-78
2020/12/06 11:11:23;;;;;;;60.72;32.38;;;4.20;99.90;;;;;;5055581;28;20032;-77
2020/12/06 11:13:50;;;;;;;56.25;30.25;;;4.20;99.90;;;;;;5052556;28;20024;-78
2020/12/06 11:16:17;;;;;;;55.70;28.27;;;4.30;99.90;;;;;;5056940;28;20040;-77
2020/12/06 11:18:45;;;;;;;47.65;26.58;;;4.30;99.90;;;;;;5055543;28;20040;-79
2020/12/06 11:21:13;;;;;;;47.10;25.25;;;4.40;99.90;;;;;;5057159;28;20035;-78
2020/12/06 11:23:40;;;;;;;40.83;23.67;;;4.30;99.90;;;;;;5055607;28;20032;-78
2020/12/06 11:26:06;;;;;;;40.17;22.60;;;4.40;99.90;;;;;;5053964;28;20037;-76
2020/12/06 11:28:32;;;;;;;44.55;23.02;;;4.40;99.90;;;;;;5048646;28;20446;-78
2020/12/06 11:30:59;;;;;;;58.33;32.15;;;4.40;99.90;;;;;;5056065;28;20037;-78
2020/12/06 11:33:25;;;;;;;55.13;32.25;;;4.40;99.90;;;;;;5059364;28;20049;-77
2020/12/06 11:35:51;;;;;;;55.00;28.25;;;4.50;99.90;;;;;;5057257;28;20033;-79
2020/12/06 11:38:18;;;;;;;46.72;26.60;;;4.40;99.90;;;;;;5056604;28;20041;-77
2020/12/06 11:40:44;;;;;;;48.17;26.88;;;4.40;99.90;;;;;;5056116;28;20040;-77
2020/12/06 11:43:10;;;;;;;55.47;26.77;;;4.30;99.90;;;;;;5055896;28;20047;-78
2020/12/06 11:45:37;;;;;;;46.55;24.25;;;4.30;99.90;;;;;;5057284;28;20461;-77
2020/12/06 11:48:03;;;;;;;55.08;29.38;;;4.30;99.90;;;;;;5061589;28;20076;-77
2020/12/06 11:50:32;;;;;;;51.83;27.73;;;4.30;99.90;;;;;;5059376;28;20049;-78
2020/12/06 11:53:00;;;;;;;58.95;28.98;;;4.30;99.90;;;;;;5049416;28;20032;-77
2020/12/06 11:55:26;;;;;;;55.28;27.73;;;4.30;99.90;;;;;;5049254;28;20056;-81
2020/12/06 11:57:53;;;;;;;48.15;24.92;;;4.30;99.90;;;;;;5052061;28;20037;-78
2020/12/06 12:00:19;;;;;;;46.97;24.20;;;4.30;99.90;;;;;;5043352;28;20026;-78
2020/12/06 12:02:45;;;;;;;55.40;26.85;;;4.30;99.90;;;;;;5048931;28;20029;-77
2020/12/06 12:05:12;;;;;;;53.38;28.38;;;4.30;99.90;;;;;;5043858;28;20034;-77
2020/12/06 12:07:38;;;;;;;56.33;30.23;;;4.30;99.90;;;;;;5043850;28;20362;-77
2020/12/06 12:10:05;;;;;;;54.25;30.20;;;4.30;99.90;;;;;;5056609;28;20377;-77
2020/12/06 12:12:31;;;;;;;55.75;27.90;;;4.30;99.90;;;;;;5056230;28;20025;-77
2020/12/06 12:14:57;;;;;;;53.28;26.80;;;4.30;99.90;;;;;;5050001;28;20025;-76
2020/12/06 12:17:24;;;;;;;51.15;26.83;;;4.40;99.90;;;;;;5038074;28;20045;-77
2020/12/06 12:19:50;;;;;;;52.20;26.52;;;4.40;99.90;;;;;;5049452;28;20036;-77
2020/12/06 12:22:20;;;;;;;47.60;25.38;;;4.40;99.90;;;;;;5054745;28;20021;-77
2020/12/06 12:24:48;;;;;;;36.93;20.07;;;4.50;99.90;;;;;;5048466;28;20250;-77
2020/12/06 12:27:14;;;;;;;31.15;18.40;;;4.50;99.90;;;;;;5049282;28;20025;-77
2020/12/06 12:29:40;;;;;;;27.15;16.75;;;4.60;99.90;;;;;;5051007;28;20032;-77
2020/12/06 12:32:07;;;;;;;29.58;17.42;;;4.60;99.90;;;;;;5055361;28;20032;-78
2020/12/06 12:34:33;;;;;;;23.45;15.60;;;4.70;99.90;;;;;;5056727;28;20045;-77
2020/12/06 12:37:00;;;;;;;29.15;16.92;;;4.70;99.90;;;;;;5059658;28;20453;-77
2020/12/06 12:39:26;;;;;;;23.92;14.52;;;4.70;99.90;;;;;;5062766;28;20037;-81
2020/12/06 12:41:55;;;;;;;28.48;16.42;;;4.80;99.90;;;;;;5057719;28;20045;-82
2020/12/06 12:44:23;;;;;;;26.75;14.45;;;4.80;99.90;;;;;;5058837;28;20378;-80